Time;durP1;ratioP1;P1;durP2;ratioP2;P2;SDS_P1;SDS_P2;PMS_P1;PMS_P2;Temp;Humidity;BMP_temperature;BMP_pressure;BME280_temperature;BME280_humidity;BME280_pressure;Samples;Min_cycle;Max_cycle;Signal;HPM_P1;HPM_P2
2023/01/13 00:01:15;;;;;;;5.53;1.17;;;;;;;;;;5074550;28;20024;-25
2023/01/13 00:03:41;;;;;;;4.38;1.58;;;;;;;;;;5080896;28;20032;-25
2023/01/13 00:06:09;;;;;;;7.35;2.67;;;;;;;;;;5075392;28;20035;-25
2023/01/13 00:08:35;;;;;;;5.45;1.50;;;;;;;;;;5074483;28;20025;-25
2023/01/13 00:11:02;;;;;;;6.55;1.33;;;;;;;;;;5075028;28;20100;-26
2023/01/13 00:13:28;;;;;;;3.63;1.27;;;;;;;;;;5074397;28;20029;-25
2023/01/13 00:16:05;;;;;;;7.20;1.67;;;;;;;;;;5074464;28;20040;-25
2023/01/13 00:18:32;;;;;;;6.07;1.98;;;;;;;;;;5074392;28;20032;-26
2023/01/13 00:21:06;;;;;;;12.20;1.92;;;;;;;;;;5074379;28;20058;-25
2023/01/13 00:23:35;;;;;;;5.47;1.40;;;;;;;;;;5075010;28;20359;-25
2023/01/13 00:26:05;;;;;;;6.07;1.20;;;;;;;;;;5074826;28;20024;-25
2023/01/13 00:28:32;;;;;;;3.17;1.20;;;;;;;;;;5074562;28;20040;-25
2023/01/13 00:31:05;;;;;;;2.47;1.08;;;;;;;;;;5073363;28;20463;-25
2023/01/13 00:33:31;;;;;;;5.85;1.23;;;;;;;;;;5074761;28;20043;-25
2023/01/13 00:35:58;;;;;;;4.20;1.30;;;;;;;;;;5073270;28;20055;-25
2023/01/13 00:38:25;;;;;;;6.40;2.35;;;;;;;;;;5074452;28;20028;-25
2023/01/13 00:40:55;;;;;;;5.55;1.33;;;;;;;;;;5074505;28;20024;-25
2023/01/13 00:43:21;;;;;;;8.23;1.57;;;;;;;;;;5074335;28;20025;-25
2023/01/13 00:45:50;;;;;;;5.63;1.20;;;;;;;;;;5074211;28;20392;-25
2023/01/13 00:48:17;;;;;;;1.90;1.08;;;;;;;;;;5074439;28;20416;-26
2023/01/13 00:50:44;;;;;;;2.95;1.38;;;;;;;;;;5074285;28;20178;-25
2023/01/13 00:53:11;;;;;;;6.25;1.02;;;;;;;;;;5073549;28;20024;-25
2023/01/13 00:55:37;;;;;;;2.95;1.30;;;;;;;;;;5074040;28;20024;-25
2023/01/13 00:58:04;;;;;;;2.65;1.27;;;;;;;;;;5074054;28;20036;-25
2023/01/13 01:00:31;;;;;;;2.38;0.88;;;;;;;;;;5074286;28;20032;-25
2023/01/13 01:02:57;;;;;;;4.40;1.00;;;;;;;;;;5073839;28;20033;-25
2023/01/13 01:05:23;;;;;;;5.43;1.20;;;;;;;;;;5076585;28;20037;-25
2023/01/13 01:07:50;;;;;;;6.65;1.67;;;;;;;;;;5077614;28;20024;-25
2023/01/13 01:10:16;;;;;;;2.47;1.13;;;;;;;;;;5078056;28;20040;-25
2023/01/13 01:12:42;;;;;;;9.07;1.08;;;;;;;;;;5077416;28;20028;-25
2023/01/13 01:15:09;;;;;;;6.57;1.80;;;;;;;;;;5077694;28;20029;-25
2023/01/13 01:17:36;;;;;;;3.90;1.35;;;;;;;;;;5077691;28;20036;-25
2023/01/13 01:20:03;;;;;;;4.63;1.48;;;;;;;;;;5077382;28;20079;-25
2023/01/13 01:22:29;;;;;;;7.47;1.30;;;;;;;;;;5077368;28;20025;-25
2023/01/13 01:24:55;;;;;;;4.18;1.20;;;;;;;;;;5077298;28;20081;-25
2023/01/13 01:27:21;;;;;;;4.15;1.42;;;;;;;;;;5077719;28;20028;-25
2023/01/13 01:29:48;;;;;;;3.72;1.48;;;;;;;;;;5077465;28;20362;-26
2023/01/13 01:32:14;;;;;;;10.05;1.67;;;;;;;;;;5077080;28;20115;-25
2023/01/13 01:34:40;;;;;;;4.18;1.15;;;;;;;;;;5077376;28;20033;-25
2023/01/13 01:37:06;;;;;;;4.00;1.27;;;;;;;;;;5077073;28;20107;-25
2023/01/13 01:39:33;;;;;;;2.60;1.42;;;;;;;;;;5077250;28;20056;-25
2023/01/13 01:45:10;;;;;;;5.13;1.33;;;;;;;;;;5076990;28;20098;-25
2023/01/13 01:47:36;;;;;;;3.53;1.50;;;;;;;;;;5075005;28;20090;-25
2023/01/13 01:50:03;;;;;;;8.43;1.88;;;;;;;;;;5076811;28;20058;-25
2023/01/13 01:52:33;;;;;;;2.38;1.10;;;;;;;;;;5076705;28;20032;-25
2023/01/13 01:55:01;;;;;;;2.50;1.70;;;;;;;;;;5077102;28;20052;-25
2023/01/13 01:57:32;;;;;;;8.38;1.98;;;;;;;;;;5076683;28;20025;-25
2023/01/13 01:59:59;;;;;;;5.07;1.33;;;;;;;;;;5076959;28;20059;-25
2023/01/13 02:02:26;;;;;;;3.85;1.55;;;;;;;;;;5076516;28;20028;-25
2023/01/13 02:04:55;;;;;;;4.57;1.17;;;;;;;;;;5075405;28;20051;-25
2023/01/13 02:07:23;;;;;;;9.38;1.38;;;;;;;;;;5076551;28;20044;-25
2023/01/13 02:09:51;;;;;;;2.70;1.10;;;;;;;;;;5075653;28;20024;-25
2023/01/13 02:12:30;;;;;;;3.85;1.98;;;;;;;;;;5076355;28;20034;-25
2023/01/13 02:15:08;;;;;;;3.90;1.25;;;;;;;;;;5076446;28;20073;-24
2023/01/13 02:17:38;;;;;;;2.90;1.33;;;;;;;;;;5076094;28;20083;-25
2023/01/13 02:20:11;;;;;;;4.22;1.20;;;;;;;;;;5076567;28;20029;-25
2023/01/13 02:22:46;;;;;;;6.22;1.20;;;;;;;;;;5076338;28;20036;-25
2023/01/13 02:25:31;;;;;;;4.38;1.48;;;;;;;;;;5076082;28;20044;-25
2023/01/13 02:28:03;;;;;;;3.53;1.30;;;;;;;;;;5076656;28;20016;-25
2023/01/13 02:33:50;;;;;;;3.03;1.35;;;;;;;;;;5076251;28;20528;-25
2023/01/13 02:36:35;;;;;;;3.35;1.38;;;;;;;;;;5076023;28;20043;-25
2023/01/13 02:39:04;;;;;;;2.90;1.90;;;;;;;;;;5075222;28;20028;-25
2023/01/13 02:44:26;;;;;;;4.20;1.35;;;;;;;;;;5076081;28;20046;-25
2023/01/13 02:47:05;;;;;;;4.47;1.30;;;;;;;;;;5075726;28;20028;-25
2023/01/13 02:49:39;;;;;;;5.18;1.85;;;;;;;;;;5074903;28;20028;-25
2023/01/13 02:52:24;;;;;;;5.05;1.88;;;;;;;;;;5074602;28;20131;-25
2023/01/13 02:54:54;;;;;;;9.10;1.55;;;;;;;;;;5075821;28;20028;-25
2023/01/13 02:57:21;;;;;;;4.50;1.63;;;;;;;;;;5076076;28;20344;-26
2023/01/13 02:59:47;;;;;;;4.55;2.40;;;;;;;;;;5075485;28;20094;-25
2023/01/13 03:02:18;;;;;;;5.50;1.70;;;;;;;;;;5075310;28;20043;-25
2023/01/13 03:04:50;;;;;;;3.50;1.65;;;;;;;;;;5075416;28;20114;-25
2023/01/13 03:07:43;;;;;;;5.05;1.83;;;;;;;;;;5076089;28;20048;-25
2023/01/13 03:10:28;;;;;;;6.22;1.73;;;;;;;;;;5075564;28;20020;-25
2023/01/13 03:13:06;;;;;;;7.70;2.22;;;;;;;;;;5075114;28;20043;-25
2023/01/13 03:15:39;;;;;;;4.40;1.38;;;;;;;;;;5075134;28;20032;-25
2023/01/13 03:18:24;;;;;;;5.07;1.60;;;;;;;;;;5075178;28;20152;-25
2023/01/13 03:21:02;;;;;;;5.53;1.48;;;;;;;;;;5075131;28;20351;-25
2023/01/13 03:23:35;;;;;;;2.70;1.60;;;;;;;;;;5075152;28;20028;-25
2023/01/13 03:26:16;;;;;;;4.57;1.63;;;;;;;;;;5075328;28;20363;-25
2023/01/13 03:29:05;;;;;;;4.72;1.52;;;;;;;;;;5075353;28;20032;-25
2023/01/13 03:31:34;;;;;;;5.47;1.65;;;;;;;;;;5055803;28;20116;-26
2023/01/13 03:34:04;;;;;;;3.28;1.42;;;;;;;;;;5075065;28;20042;-25
2023/01/13 03:36:31;;;;;;;4.68;1.70;;;;;;;;;;5074895;28;20020;-25
2023/01/13 03:39:01;;;;;;;3.60;1.98;;;;;;;;;;5074799;28;20037;-25
2023/01/13 03:41:30;;;;;;;4.47;1.60;;;;;;;;;;5075152;28;20044;-25
2023/01/13 03:46:47;;;;;;;4.25;1.58;;;;;;;;;;5074849;28;20081;-25
2023/01/13 03:49:15;;;;;;;7.05;1.33;;;;;;;;;;5074696;28;20020;-25
2023/01/13 03:51:42;;;;;;;3.40;1.50;;;;;;;;;;5074949;28;20554;-26
2023/01/13 03:54:10;;;;;;;3.22;1.42;;;;;;;;;;5074682;28;20028;-25
2023/01/13 03:56:39;;;;;;;4.68;1.80;;;;;;;;;;5074906;28;20371;-25
2023/01/13 03:59:07;;;;;;;8.63;2.00;;;;;;;;;;5074586;28;20021;-25
2023/01/13 04:01:42;;;;;;;2.97;1.48;;;;;;;;;;5074563;28;20028;-25
2023/01/13 04:04:10;;;;;;;4.22;1.50;;;;;;;;;;5074566;28;20028;-25
2023/01/13 04:06:37;;;;;;;5.90;1.77;;;;;;;;;;5074825;28;20048;-25
2023/01/13 04:09:21;;;;;;;5.05;2.03;;;;;;;;;;5074477;28;20515;-25
2023/01/13 04:12:11;;;;;;;3.20;1.40;;;;;;;;;;5074671;28;20360;-25
2023/01/13 04:14:37;;;;;;;5.00;1.70;;;;;;;;;;5069122;28;20067;-25
2023/01/13 04:17:04;;;;;;;3.13;1.45;;;;;;;;;;5074415;28;20099;-25
2023/01/13 04:19:31;;;;;;;13.13;1.77;;;;;;;;;;5074717;28;20032;-25
2023/01/13 04:21:58;;;;;;;4.60;1.10;;;;;;;;;;5074203;28;20029;-25
2023/01/13 04:24:25;;;;;;;2.58;1.05;;;;;;;;;;5073397;28;20056;-25
2023/01/13 04:26:51;;;;;;;1.38;1.00;;;;;;;;;;5074651;28;20039;-25
2023/01/13 04:29:17;;;;;;;7.07;2.53;;;;;;;;;;5074582;28;20082;-25
2023/01/13 04:31:44;;;;;;;3.92;1.85;;;;;;;;;;5075190;28;20346;-25
2023/01/13 04:34:10;;;;;;;8.10;1.70;;;;;;;;;;5074286;28;20043;-25
2023/01/13 04:36:37;;;;;;;4.25;1.85;;;;;;;;;;5074487;28;20104;-25
2023/01/13 04:39:03;;;;;;;3.88;1.90;;;;;;;;;;5075026;28;20161;-25
2023/01/13 04:41:56;;;;;;;3.38;1.33;;;;;;;;;;5078102;28;20028;-25
2023/01/13 04:44:15;;;;;;;3.13;1.35;;;;;;;;;;5077864;28;20425;-25
2023/01/13 04:46:42;;;;;;;6.15;1.90;;;;;;;;;;5078193;28;20492;-25
2023/01/13 04:49:09;;;;;;;5.18;1.90;;;;;;;;;;5076963;28;20028;-25
2023/01/13 04:51:35;;;;;;;3.70;1.23;;;;;;;;;;5078089;28;20036;-25
2023/01/13 04:54:01;;;;;;;7.18;1.92;;;;;;;;;;5077693;28;20228;-25
2023/01/13 04:56:27;;;;;;;7.07;1.73;;;;;;;;;;5077694;28;20028;-25
2023/01/13 04:58:53;;;;;;;3.95;1.38;;;;;;;;;;5078123;28;20159;-25
2023/01/13 05:01:20;;;;;;;5.68;2.17;;;;;;;;;;5077840;28;20363;-25
2023/01/13 05:03:46;;;;;;;7.80;1.42;;;;;;;;;;5077476;28;20041;-25
2023/01/13 05:06:12;;;;;;;3.83;1.60;;;;;;;;;;5077432;28;20044;-25
2023/01/13 05:08:38;;;;;;;2.28;1.23;;;;;;;;;;5076486;28;20036;-25
2023/01/13 05:16:58;;;;;;;3.97;1.50;;;;;;;;;;5077483;28;20020;-25
2023/01/13 05:19:20;;;;;;;3.50;1.55;;;;;;;;;;5077397;28;20470;-26
2023/01/13 05:27:16;;;;;;;3.97;1.67;;;;;;;;;;5077239;28;20036;-25
2023/01/13 05:29:42;;;;;;;4.07;1.40;;;;;;;;;;5076837;28;20359;-25
2023/01/13 05:32:08;;;;;;;6.30;1.65;;;;;;;;;;5076754;28;20031;-25
2023/01/13 05:34:34;;;;;;;3.92;1.33;;;;;;;;;;5077083;28;20043;-25
2023/01/13 05:37:00;;;;;;;4.30;1.23;;;;;;;;;;5076409;28;20096;-25
2023/01/13 05:43:18;;;;;;;5.63;1.63;;;;;;;;;;5076316;28;20040;-25
2023/01/13 05:44:58;;;;;;;5.95;1.45;;;;;;;;;;5076312;28;20375;-25
2023/01/13 05:47:24;;;;;;;2.53;1.48;;;;;;;;;;5076331;28;20016;-25
2023/01/13 05:49:50;;;;;;;4.40;1.48;;;;;;;;;;5075128;28;20513;-25
2023/01/13 05:52:16;;;;;;;2.58;1.17;;;;;;;;;;5076005;28;20367;-26
2023/01/13 05:54:43;;;;;;;2.08;1.10;;;;;;;;;;5075090;28;20059;-25
2023/01/13 05:57:09;;;;;;;4.65;1.40;;;;;;;;;;5076177;28;20024;-25
2023/01/13 05:59:35;;;;;;;5.00;2.22;;;;;;;;;;5076303;28;20032;-25
2023/01/13 06:02:01;;;;;;;3.90;1.50;;;;;;;;;;5075973;28;20048;-25
2023/01/13 06:04:28;;;;;;;2.28;1.20;;;;;;;;;;5075115;28;20090;-25
2023/01/13 06:06:54;;;;;;;4.13;1.38;;;;;;;;;;5076083;28;20356;-24
2023/01/13 06:09:21;;;;;;;3.72;1.55;;;;;;;;;;5075906;28;20560;-25
2023/01/13 06:11:48;;;;;;;5.80;2.25;;;;;;;;;;5076158;28;20089;-25
2023/01/13 06:14:14;;;;;;;6.35;1.30;;;;;;;;;;5076285;28;20039;-25
2023/01/13 06:16:40;;;;;;;5.60;1.75;;;;;;;;;;5076576;28;20150;-25
2023/01/13 06:19:08;;;;;;;9.52;2.17;;;;;;;;;;5076532;28;20032;-25
2023/01/13 06:21:34;;;;;;;4.20;1.77;;;;;;;;;;5077216;28;20044;-33
2023/01/13 06:24:01;;;;;;;4.25;2.30;;;;;;;;;;5076546;28;20124;-25
2023/01/13 06:26:29;;;;;;;5.93;1.90;;;;;;;;;;5076123;28;20412;-26
2023/01/13 06:28:55;;;;;;;4.90;1.30;;;;;;;;;;5076475;28;20047;-25
2023/01/13 06:31:22;;;;;;;9.73;1.60;;;;;;;;;;5076398;28;20415;-25
2023/01/13 06:33:49;;;;;;;4.90;1.83;;;;;;;;;;5076740;28;20021;-26
2023/01/13 06:36:26;;;;;;;2.83;1.48;;;;;;;;;;5075784;28;20044;-26
2023/01/13 06:38:55;;;;;;;3.67;1.20;;;;;;;;;;5075809;28;20024;-26
2023/01/13 06:43:13;;;;;;;2.67;1.25;;;;;;;;;;5075459;28;20036;-26
2023/01/13 06:44:08;;;;;;;4.65;1.42;;;;;;;;;;5075344;28;20115;-26
2023/01/13 06:46:34;;;;;;;10.23;2.10;;;;;;;;;;5075482;28;20056;-25
2023/01/13 06:49:00;;;;;;;7.72;1.38;;;;;;;;;;5074538;28;20024;-32
2023/01/13 06:51:27;;;;;;;8.45;2.38;;;;;;;;;;5074157;28;20020;-25
2023/01/13 06:53:53;;;;;;;11.82;2.60;;;;;;;;;;5075551;28;20486;-25
2023/01/13 06:56:19;;;;;;;7.50;2.08;;;;;;;;;;5075082;28;20035;-26
2023/01/13 06:58:45;;;;;;;8.27;2.10;;;;;;;;;;5074940;28;20032;-25
2023/01/13 07:01:12;;;;;;;8.73;2.55;;;;;;;;;;5075112;28;20095;-26
2023/01/13 07:03:38;;;;;;;9.95;1.70;;;;;;;;;;5074570;28;20021;-25
2023/01/13 07:06:04;;;;;;;6.65;2.25;;;;;;;;;;5074610;28;20471;-25
2023/01/13 07:08:30;;;;;;;4.75;1.67;;;;;;;;;;5074003;28;20036;-26
2023/01/13 07:10:57;;;;;;;6.72;1.38;;;;;;;;;;5074651;28;20086;-25
2023/01/13 07:16:08;;;;;;;5.13;2.20;;;;;;;;;;5075345;28;20047;-25
2023/01/13 07:18:35;;;;;;;4.93;1.77;;;;;;;;;;5074635;28;20097;-26
2023/01/13 07:21:03;;;;;;;5.13;1.88;;;;;;;;;;5074830;28;20035;-25
2023/01/13 07:23:30;;;;;;;4.68;1.52;;;;;;;;;;5074393;28;20032;-26
2023/01/13 07:25:57;;;;;;;5.63;1.17;;;;;;;;;;5074722;28;20020;-26
2023/01/13 07:28:24;;;;;;;4.57;1.50;;;;;;;;;;5074789;28;20108;-26
2023/01/13 07:30:50;;;;;;;4.25;1.50;;;;;;;;;;5074631;28;20043;-25
2023/01/13 07:33:20;;;;;;;6.43;1.50;;;;;;;;;;5074267;28;20452;-26
2023/01/13 07:35:46;;;;;;;4.68;1.67;;;;;;;;;;5074440;28;20419;-26
2023/01/13 07:38:12;;;;;;;4.78;2.03;;;;;;;;;;5074635;28;20028;-26
2023/01/13 07:40:39;;;;;;;3.75;1.70;;;;;;;;;;5074833;28;20366;-26
2023/01/13 07:46:11;;;;;;;2.47;1.10;;;;;;;;;;5074430;28;20034;-25
2023/01/13 07:48:37;;;;;;;4.00;1.45;;;;;;;;;;5074685;28;20130;-25
2023/01/13 07:51:04;;;;;;;3.30;1.27;;;;;;;;;;5074267;28;20025;-25
2023/01/13 07:53:31;;;;;;;7.20;1.90;;;;;;;;;;5074306;28;20028;-25
2023/01/13 07:55:57;;;;;;;6.35;1.77;;;;;;;;;;5074221;28;20153;-26
2023/01/13 07:58:24;;;;;;;4.07;2.00;;;;;;;;;;5074272;28;20074;-25
2023/01/13 08:00:50;;;;;;;4.40;1.42;;;;;;;;;;5074286;28;20471;-25
2023/01/13 08:03:16;;;;;;;3.58;1.58;;;;;;;;;;5074108;28;20036;-25
2023/01/13 08:05:43;;;;;;;3.65;1.80;;;;;;;;;;5073977;28;20040;-26
2023/01/13 08:08:09;;;;;;;5.07;2.15;;;;;;;;;;5074422;28;20037;-25
2023/01/13 08:10:36;;;;;;;5.00;1.73;;;;;;;;;;5074112;28;20035;-26
2023/01/13 08:13:18;;;;;;;7.45;2.33;;;;;;;;;;5073898;28;20040;-25
2023/01/13 08:15:45;;;;;;;2.20;1.42;;;;;;;;;;5078308;28;20354;-26
2023/01/13 08:18:11;;;;;;;4.13;1.08;;;;;;;;;;5078444;28;20367;-25
2023/01/13 08:20:37;;;;;;;3.90;1.48;;;;;;;;;;5078379;28;20024;-26
2023/01/13 08:23:04;;;;;;;5.10;2.35;;;;;;;;;;5077033;28;20168;-25
2023/01/13 08:25:30;;;;;;;3.15;1.35;;;;;;;;;;5078297;28;20108;-26
2023/01/13 08:27:58;;;;;;;5.63;1.70;;;;;;;;;;5077765;28;20025;-26
2023/01/13 08:30:25;;;;;;;3.03;1.38;;;;;;;;;;5078557;28;20360;-26
2023/01/13 08:32:51;;;;;;;4.57;1.50;;;;;;;;;;5077904;28;20107;-26
2023/01/13 08:35:18;;;;;;;4.13;1.85;;;;;;;;;;5078153;28;20032;-26
2023/01/13 08:37:45;;;;;;;6.10;1.70;;;;;;;;;;5077904;28;20024;-25
2023/01/13 08:40:12;;;;;;;4.30;1.70;;;;;;;;;;5077892;28;20040;-25
2023/01/13 08:42:38;;;;;;;5.95;1.58;;;;;;;;;;5077578;28;20055;-26
2023/01/13 08:45:05;;;;;;;7.18;2.05;;;;;;;;;;5077664;28;20405;-26
2023/01/13 08:47:31;;;;;;;4.22;2.03;;;;;;;;;;5077786;28;20077;-26
2023/01/13 08:49:57;;;;;;;13.35;2.65;;;;;;;;;;5077528;28;20036;-26
2023/01/13 08:52:23;;;;;;;5.65;2.00;;;;;;;;;;5077470;28;20048;-26
2023/01/13 08:54:49;;;;;;;5.97;1.73;;;;;;;;;;5077703;28;20455;-26
2023/01/13 08:57:18;;;;;;;8.63;2.20;;;;;;;;;;5077774;28;20105;-26
2023/01/13 08:59:45;;;;;;;7.30;2.00;;;;;;;;;;5076759;28;20028;-26
2023/01/13 09:02:18;;;;;;;3.67;1.75;;;;;;;;;;5077514;28;20033;-27
2023/01/13 09:04:44;;;;;;;8.70;2.15;;;;;;;;;;5077268;28;20040;-25
2023/01/13 09:07:11;;;;;;;3.47;1.50;;;;;;;;;;5077419;28;20462;-25
2023/01/13 09:09:37;;;;;;;8.52;2.40;;;;;;;;;;5077384;28;20510;-26
2023/01/13 09:14:48;;;;;;;6.15;2.80;;;;;;;;;;5077264;28;20043;-26
2023/01/13 09:17:14;;;;;;;3.15;1.60;;;;;;;;;;5077255;28;20399;-25
2023/01/13 09:19:41;;;;;;;5.68;1.70;;;;;;;;;;5077701;28;20363;-26
2023/01/13 09:22:07;;;;;;;6.35;1.98;;;;;;;;;;5077461;28;20112;-26
2023/01/13 09:24:33;;;;;;;6.20;2.38;;;;;;;;;;5076569;28;20207;-26
2023/01/13 09:26:59;;;;;;;6.63;1.75;;;;;;;;;;5077586;28;20339;-25
2023/01/13 09:29:25;;;;;;;6.55;2.20;;;;;;;;;;5077295;28;20107;-26
2023/01/13 09:31:52;;;;;;;4.20;1.83;;;;;;;;;;5077179;28;20432;-26
2023/01/13 09:37:06;;;;;;;6.75;2.47;;;;;;;;;;5077239;28;20071;-25
2023/01/13 09:39:33;;;;;;;7.63;2.40;;;;;;;;;;5059806;28;20333;-25
2023/01/13 09:44:51;;;;;;;6.85;1.95;;;;;;;;;;5077627;28;20128;-25
2023/01/13 09:47:17;;;;;;;6.38;2.28;;;;;;;;;;5076865;28;20452;-25
2023/01/13 09:49:43;;;;;;;6.88;2.13;;;;;;;;;;5076497;28;20396;-25
2023/01/13 09:52:19;;;;;;;11.23;3.15;;;;;;;;;;5076516;28;20029;-25
2023/01/13 09:54:51;;;;;;;5.40;1.80;;;;;;;;;;5076378;28;20033;-25
2023/01/13 09:57:18;;;;;;;3.83;1.60;;;;;;;;;;5058799;28;20021;-25
2023/01/13 09:59:45;;;;;;;4.28;2.15;;;;;;;;;;5076371;28;20052;-25
2023/01/13 10:02:11;;;;;;;8.20;1.98;;;;;;;;;;5076246;28;20085;-25
2023/01/13 10:04:37;;;;;;;11.32;2.55;;;;;;;;;;5076254;28;20040;-26
2023/01/13 10:07:04;;;;;;;8.52;2.65;;;;;;;;;;5076788;28;20339;-25
2023/01/13 10:09:43;;;;;;;6.15;2.30;;;;;;;;;;5076783;28;20100;-29
2023/01/13 10:15:02;;;;;;;7.90;2.38;;;;;;;;;;5076402;28;20048;-26
2023/01/13 10:17:33;;;;;;;8.00;2.10;;;;;;;;;;5058428;28;20017;-26
2023/01/13 10:20:12;;;;;;;4.80;2.30;;;;;;;;;;5075953;28;20395;-26
2023/01/13 10:22:38;;;;;;;7.15;2.20;;;;;;;;;;5075764;28;20430;-26
2023/01/13 10:25:08;;;;;;;7.43;2.28;;;;;;;;;;5076018;28;20032;-26
2023/01/13 10:27:35;;;;;;;10.80;2.90;;;;;;;;;;5076011;28;20324;-25
2023/01/13 10:30:19;;;;;;;8.55;3.05;;;;;;;;;;5075646;28;20032;-24
2023/01/13 10:32:47;;;;;;;8.25;2.90;;;;;;;;;;5075509;28;20032;-25
2023/01/13 10:35:13;;;;;;;19.17;3.17;;;;;;;;;;5075660;28;20105;-24
2023/01/13 10:37:40;;;;;;;14.75;2.97;;;;;;;;;;5075112;28;20098;-24
2023/01/13 10:40:16;;;;;;;8.73;2.00;;;;;;;;;;5075899;28;20399;-24
2023/01/13 10:42:42;;;;;;;8.48;3.78;;;;;;;;;;5076045;28;20056;-25
2023/01/13 10:45:17;;;;;;;9.60;3.22;;;;;;;;;;5076373;28;20037;-24
2023/01/13 10:47:43;;;;;;;10.32;3.10;;;;;;;;;;5076133;28;20028;-25
2023/01/13 10:50:12;;;;;;;11.50;2.45;;;;;;;;;;5058250;28;20339;-25
2023/01/13 10:52:42;;;;;;;7.22;2.05;;;;;;;;;;5058056;28;20039;-25
2023/01/13 10:55:27;;;;;;;8.05;2.33;;;;;;;;;;5075785;28;20455;-25
2023/01/13 10:57:53;;;;;;;8.18;2.30;;;;;;;;;;5075800;28;20474;-25
2023/01/13 11:00:33;;;;;;;10.27;2.30;;;;;;;;;;5075837;28;20080;-25
2023/01/13 11:03:29;;;;;;;5.82;1.88;;;;;;;;;;5075668;28;20051;-25
2023/01/13 11:05:57;;;;;;;6.82;2.50;;;;;;;;;;5059568;28;20051;-25
2023/01/13 11:08:24;;;;;;;14.77;2.60;;;;;;;;;;5075257;28;20090;-25
2023/01/13 11:10:55;;;;;;;15.15;3.63;;;;;;;;;;5075433;28;20055;-25
2023/01/13 11:14:31;;;;;;;6.53;2.30;;;;;;;;;;5075772;28;20477;-25
2023/01/13 11:16:27;;;;;;;18.55;3.28;;;;;;;;;;5075019;28;20043;-24
2023/01/13 11:19:10;;;;;;;14.70;4.07;;;;;;;;;;5074337;28;20187;-24
2023/01/13 11:21:40;;;;;;;7.38;2.65;;;;;;;;;;5075437;28;20355;-24
2023/01/13 11:24:16;;;;;;;11.93;2.60;;;;;;;;;;5075467;28;20075;-25
2023/01/13 11:26:45;;;;;;;8.95;2.78;;;;;;;;;;5075347;28;20016;-25
2023/01/13 11:29:15;;;;;;;13.68;4.07;;;;;;;;;;5057453;28;20466;-25
2023/01/13 11:31:48;;;;;;;8.90;3.00;;;;;;;;;;5075243;28;20115;-25
2023/01/13 11:34:37;;;;;;;10.52;3.28;;;;;;;;;;5075012;28;20028;-25
2023/01/13 11:37:09;;;;;;;7.53;2.70;;;;;;;;;;5064543;28;20131;-25
2023/01/13 11:39:41;;;;;;;9.02;2.60;;;;;;;;;;5075161;28;20028;-25
2023/01/13 11:42:20;;;;;;;10.85;3.13;;;;;;;;;;5057647;28;20119;-25
2023/01/13 11:45:04;;;;;;;9.10;3.47;;;;;;;;;;5075685;28;20412;-24
2023/01/13 11:47:34;;;;;;;11.25;3.30;;;;;;;;;;5075578;28;20114;-25
2023/01/13 11:50:01;;;;;;;9.27;2.65;;;;;;;;;;5057233;28;20033;-25
2023/01/13 11:52:32;;;;;;;12.95;3.10;;;;;;;;;;5074537;28;20359;-25
2023/01/13 11:55:17;;;;;;;10.80;2.47;;;;;;;;;;5074835;28;20036;-27
2023/01/13 11:57:48;;;;;;;9.38;3.17;;;;;;;;;;5074329;28;20035;-26
2023/01/13 12:00:25;;;;;;;15.13;3.92;;;;;;;;;;5074477;28;20052;-26
2023/01/13 12:02:51;;;;;;;13.02;3.30;;;;;;;;;;5074244;28;20055;-26
2023/01/13 12:05:26;;;;;;;10.98;3.25;;;;;;;;;;5074080;28;20075;-26
2023/01/13 12:08:31;;;;;;;9.05;2.10;;;;;;;;;;5056571;28;20028;-26
2023/01/13 12:11:29;;;;;;;7.60;2.72;;;;;;;;;;4993238;28;20034;-26
2023/01/13 12:14:06;;;;;;;6.18;2.42;;;;;;;;;;4961483;28;20484;-26
2023/01/13 12:16:32;;;;;;;15.10;2.85;;;;;;;;;;5060083;28;20071;-26
2023/01/13 12:19:17;;;;;;;8.98;2.42;;;;;;;;;;5074753;28;20029;-26
2023/01/13 12:22:09;;;;;;;9.65;2.35;;;;;;;;;;5074077;28;20029;-26
2023/01/13 12:24:50;;;;;;;15.80;2.55;;;;;;;;;;5054343;28;20045;-26
2023/01/13 12:27:35;;;;;;;11.55;2.10;;;;;;;;;;5074317;28;20036;-26
2023/01/13 12:30:03;;;;;;;6.50;2.55;;;;;;;;;;5073972;28;20040;-26
2023/01/13 12:32:33;;;;;;;7.65;3.00;;;;;;;;;;5074059;28;20414;-25
2023/01/13 12:35:18;;;;;;;13.23;2.55;;;;;;;;;;5073978;28;20363;-26
2023/01/13 12:38:11;;;;;;;6.22;3.05;;;;;;;;;;5073805;28;20024;-26
2023/01/13 12:40:40;;;;;;;13.85;3.55;;;;;;;;;;5070273;28;20110;-26
2023/01/13 12:46:22;;;;;;;10.10;2.40;;;;;;;;;;5074277;28;20097;-26
2023/01/13 12:48:51;;;;;;;5.03;2.35;;;;;;;;;;5073589;28;20090;-26
2023/01/13 12:51:28;;;;;;;11.20;3.00;;;;;;;;;;5074271;28;20028;-26
2023/01/13 12:53:55;;;;;;;6.03;2.42;;;;;;;;;;5074518;28;20095;-25
2023/01/13 12:56:24;;;;;;;10.32;2.80;;;;;;;;;;5072874;28;20466;-26
2023/01/13 12:58:50;;;;;;;7.32;2.60;;;;;;;;;;5073859;28;20025;-26
2023/01/13 13:01:17;;;;;;;12.88;2.85;;;;;;;;;;5077169;28;20059;-26
2023/01/13 13:04:07;;;;;;;7.90;2.65;;;;;;;;;;5077539;28;20085;-26
2023/01/13 13:06:36;;;;;;;11.57;3.72;;;;;;;;;;5077802;28;20025;-26
2023/01/13 13:09:04;;;;;;;8.05;3.55;;;;;;;;;;5077856;28;20290;-26
2023/01/13 13:14:37;;;;;;;8.00;3.42;;;;;;;;;;5076993;28;20032;-26
2023/01/13 13:17:04;;;;;;;15.20;3.55;;;;;;;;;;5077000;28;20112;-26
2023/01/13 13:19:30;;;;;;;7.95;3.08;;;;;;;;;;5077333;28;20483;-27
2023/01/13 13:22:08;;;;;;;15.00;2.40;;;;;;;;;;5077225;28;20021;-25
2023/01/13 13:24:35;;;;;;;11.25;2.90;;;;;;;;;;5077028;28;20033;-27
2023/01/13 13:27:19;;;;;;;5.90;2.15;;;;;;;;;;5076762;28;20020;-26
2023/01/13 13:29:50;;;;;;;7.28;2.35;;;;;;;;;;5076726;28;20055;-26
2023/01/13 13:32:22;;;;;;;6.00;2.25;;;;;;;;;;5059098;28;20031;-26
2023/01/13 13:35:07;;;;;;;9.40;2.88;;;;;;;;;;5077116;28;20406;-26
2023/01/13 13:46:47;;;;;;;24.67;4.22;;;;;;;;;;5077177;28;20481;-26
2023/01/13 13:49:20;;;;;;;12.38;2.97;;;;;;;;;;5077081;28;20039;-27
2023/01/13 13:51:48;;;;;;;20.55;4.90;;;;;;;;;;5076559;28;20463;-26
2023/01/13 13:54:16;;;;;;;17.27;4.53;;;;;;;;;;5076462;28;20090;-26
2023/01/13 13:56:44;;;;;;;18.80;4.47;;;;;;;;;;5076497;28;20086;-26
2023/01/13 13:59:16;;;;;;;15.18;2.90;;;;;;;;;;5076203;28;20043;-26
2023/01/13 14:01:43;;;;;;;11.75;3.80;;;;;;;;;;5076766;28;20028;-26
2023/01/13 14:04:21;;;;;;;12.23;3.35;;;;;;;;;;5058574;28;20064;-26
2023/01/13 14:06:55;;;;;;;13.35;2.92;;;;;;;;;;5058932;28;20382;-26
2023/01/13 14:09:22;;;;;;;12.98;3.38;;;;;;;;;;5076697;28;20021;-26
2023/01/13 14:11:55;;;;;;;9.23;3.35;;;;;;;;;;5075010;28;20031;-26
2023/01/13 14:14:22;;;;;;;9.43;4.35;;;;;;;;;;5076425;28;20043;-26
2023/01/13 14:16:50;;;;;;;9.35;2.83;;;;;;;;;;5076505;28;20033;-24
2023/01/13 14:19:31;;;;;;;12.93;3.50;;;;;;;;;;5075952;28;20020;-26
2023/01/13 14:21:59;;;;;;;10.07;3.58;;;;;;;;;;5076406;28;20024;-24
2023/01/13 14:24:25;;;;;;;6.93;2.70;;;;;;;;;;5075826;28;20032;-24
2023/01/13 14:26:52;;;;;;;11.45;3.03;;;;;;;;;;5076014;28;20094;-24
2023/01/13 14:29:20;;;;;;;9.90;2.67;;;;;;;;;;5058156;28;20044;-24
2023/01/13 14:31:46;;;;;;;11.52;3.22;;;;;;;;;;5076022;28;20016;-24
2023/01/13 14:34:12;;;;;;;9.30;3.20;;;;;;;;;;5075679;28;20028;-25
2023/01/13 14:36:46;;;;;;;10.50;3.30;;;;;;;;;;5057865;28;20423;-25
2023/01/13 14:39:15;;;;;;;13.15;3.25;;;;;;;;;;5075737;28;20033;-25
2023/01/13 14:41:41;;;;;;;11.20;3.20;;;;;;;;;;5075487;28;20040;-24
2023/01/13 14:44:13;;;;;;;10.20;2.67;;;;;;;;;;5075678;28;20039;-25
2023/01/13 14:46:41;;;;;;;12.18;2.92;;;;;;;;;;5075467;28;20031;-25
2023/01/13 14:49:27;;;;;;;10.02;2.67;;;;;;;;;;5075648;28;20028;-25
2023/01/13 14:51:53;;;;;;;9.77;3.25;;;;;;;;;;5044088;28;20028;-26
2023/01/13 14:54:38;;;;;;;10.50;3.22;;;;;;;;;;5075300;28;20040;-25
2023/01/13 14:57:12;;;;;;;12.23;2.90;;;;;;;;;;5075762;28;20028;-24
2023/01/13 14:59:42;;;;;;;12.38;4.20;;;;;;;;;;5075299;28;20150;-25
2023/01/13 15:02:27;;;;;;;13.63;2.97;;;;;;;;;;5075188;28;20111;-25
2023/01/13 15:04:53;;;;;;;13.15;3.42;;;;;;;;;;5075216;28;20225;-25
2023/01/13 15:07:25;;;;;;;17.17;5.55;;;;;;;;;;5075843;28;20057;-25
2023/01/13 15:10:01;;;;;;;13.77;3.92;;;;;;;;;;5075168;28;20036;-25
2023/01/13 15:12:34;;;;;;;21.10;3.97;;;;;;;;;;5075013;28;20024;-25
2023/01/13 15:15:03;;;;;;;21.95;3.55;;;;;;;;;;5075395;28;20425;-25
2023/01/13 15:17:29;;;;;;;20.33;3.80;;;;;;;;;;5075286;28;20104;-25
2023/01/13 15:19:55;;;;;;;28.75;5.05;;;;;;;;;;5075308;28;20050;-25
2023/01/13 15:22:21;;;;;;;21.33;4.65;;;;;;;;;;5075043;28;20348;-26
2023/01/13 15:24:47;;;;;;;22.60;4.28;;;;;;;;;;5074494;28;20032;-26
2023/01/13 15:27:19;;;;;;;29.33;4.57;;;;;;;;;;5074995;28;20047;-24
2023/01/13 15:29:45;;;;;;;23.23;5.18;;;;;;;;;;5074601;28;20040;-24
2023/01/13 15:32:17;;;;;;;21.10;4.88;;;;;;;;;;5074761;28;20031;-24
2023/01/13 15:34:43;;;;;;;10.05;2.67;;;;;;;;;;5057058;28;20362;-25
2023/01/13 15:37:10;;;;;;;41.95;6.57;;;;;;;;;;5074617;28;20028;-25
2023/01/13 15:39:36;;;;;;;19.65;3.95;;;;;;;;;;5074849;28;20020;-25
2023/01/13 15:47:32;;;;;;;9.25;4.07;;;;;;;;;;5074846;28;20383;-27
2023/01/13 15:49:58;;;;;;;18.85;4.25;;;;;;;;;;5074498;28;20090;-27
2023/01/13 15:52:25;;;;;;;15.38;3.55;;;;;;;;;;5075427;28;20110;-26
2023/01/13 15:54:52;;;;;;;8.90;3.35;;;;;;;;;;5074398;28;20024;-26
2023/01/13 15:57:21;;;;;;;12.73;3.97;;;;;;;;;;5074440;28;20048;-27
2023/01/13 15:59:47;;;;;;;18.30;3.60;;;;;;;;;;5074147;28;20031;-23
2023/01/13 16:02:17;;;;;;;23.30;4.18;;;;;;;;;;5074707;28;20020;-24